sensor_id;sensor_type;location;lat;lon;timestamp;P1;durP1;ratioP1;P2;durP2;ratioP2
64492;SDS011;50868;24.150;-110.320;2023-08-31T00:00:08;8.85;;;4.00;;
64492;SDS011;50868;24.150;-110.320;2023-08-31T00:02:36;12.40;;;3.80;;
64492;SDS011;50868;24.150;-110.320;2023-08-31T00:05:05;9.50;;;3.65;;
64492;SDS011;50868;24.150;-110.320;2023-08-31T00:07:32;13.68;;;4.00;;
64492;SDS011;50868;24.150;-110.320;2023-08-31T00:09:59;13.45;;;4.20;;
64492;SDS011;50868;24.150;-110.320;2023-08-31T00:12:35;19.67;;;4.18;;
64492;SDS011;50868;24.150;-110.320;2023-08-31T00:15:03;12.95;;;3.63;;
64492;SDS011;50868;24.150;-110.320;2023-08-31T00:17:31;13.40;;;3.90;;
64492;SDS011;50868;24.150;-110.320;2023-08-31T00:19:58;10.80;;;4.45;;
64492;SDS011;50868;24.150;-110.320;2023-08-31T00:22:25;18.67;;;6.15;;
64492;SDS011;50868;24.150;-110.320;2023-08-31T00:24:52;14.23;;;5.93;;
64492;SDS011;50868;24.150;-110.320;2023-08-31T00:27:19;8.68;;;5.28;;
64492;SDS011;50868;24.150;-110.320;2023-08-31T00:29:47;11.48;;;5.78;;
64492;SDS011;50868;24.150;-110.320;2023-08-31T00:32:16;10.00;;;6.00;;
64492;SDS011;50868;24.150;-110.320;2023-08-31T00:34:44;17.73;;;5.68;;
64492;SDS011;50868;24.150;-110.320;2023-08-31T00:37:11;11.98;;;5.60;;
64492;SDS011;50868;24.150;-110.320;2023-08-31T00:39:39;12.48;;;5.28;;
64492;SDS011;50868;24.150;-110.320;2023-08-31T00:42:06;23.30;;;4.68;;
64492;SDS011;50868;24.150;-110.320;2023-08-31T00:44:33;10.38;;;4.05;;
64492;SDS011;50868;24.150;-110.320;2023-08-31T00:47:01;17.30;;;4.72;;
64492;SDS011;50868;24.150;-110.320;2023-08-31T00:49:28;17.55;;;4.18;;
64492;SDS011;50868;24.150;-110.320;2023-08-31T00:51:55;17.63;;;5.18;;
64492;SDS011;50868;24.150;-110.320;2023-08-31T00:54:23;8.48;;;3.90;;
64492;SDS011;50868;24.150;-110.320;2023-08-31T00:56:53;19.00;;;4.43;;
64492;SDS011;50868;24.150;-110.320;2023-08-31T00:59:20;16.10;;;5.05;;
64492;SDS011;50868;24.150;-110.320;2023-08-31T01:02:11;15.75;;;4.13;;
64492;SDS011;50868;24.150;-110.320;2023-08-31T01:07:31;14.90;;;5.28;;
64492;SDS011;50868;24.150;-110.320;2023-08-31T01:13:44;17.23;;;4.47;;
64492;SDS011;50868;24.150;-110.320;2023-08-31T01:16:17;11.83;;;4.73;;
64492;SDS011;50868;24.150;-110.320;2023-08-31T01:18:46;13.82;;;4.65;;
64492;SDS011;50868;24.150;-110.320;2023-08-31T01:21:30;14.68;;;4.38;;
64492;SDS011;50868;24.150;-110.320;2023-08-31T01:24:03;11.20;;;4.22;;
64492;SDS011;50868;24.150;-110.320;2023-08-31T01:26:32;15.70;;;4.45;;
64492;SDS011;50868;24.150;-110.320;2023-08-31T01:28:59;9.85;;;4.35;;
64492;SDS011;50868;24.150;-110.320;2023-08-31T01:31:27;6.22;;;3.78;;
64492;SDS011;50868;24.150;-110.320;2023-08-31T01:33:54;15.88;;;4.32;;
64492;SDS011;50868;24.150;-110.320;2023-08-31T01:39:03;8.88;;;3.78;;
64492;SDS011;50868;24.150;-110.320;2023-08-31T01:41:34;10.57;;;3.53;;
64492;SDS011;50868;24.150;-110.320;2023-08-31T01:44:02;11.02;;;3.85;;
64492;SDS011;50868;24.150;-110.320;2023-08-31T01:46:32;15.52;;;4.05;;
64492;SDS011;50868;24.150;-110.320;2023-08-31T01:48:59;13.68;;;4.68;;
64492;SDS011;50868;24.150;-110.320;2023-08-31T01:51:26;10.38;;;5.25;;
64492;SDS011;50868;24.150;-110.320;2023-08-31T01:53:53;18.48;;;5.35;;
64492;SDS011;50868;24.150;-110.320;2023-08-31T01:56:21;12.48;;;5.57;;
64492;SDS011;50868;24.150;-110.320;2023-08-31T01:58:48;16.45;;;5.45;;
64492;SDS011;50868;24.150;-110.320;2023-08-31T02:01:15;34.55;;;9.02;;
64492;SDS011;50868;24.150;-110.320;2023-08-31T02:03:43;29.92;;;8.80;;
64492;SDS011;50868;24.150;-110.320;2023-08-31T02:06:10;18.80;;;5.75;;
64492;SDS011;50868;24.150;-110.320;2023-08-31T02:08:37;15.82;;;5.88;;
64492;SDS011;50868;24.150;-110.320;2023-08-31T02:11:05;19.75;;;6.78;;
64492;SDS011;50868;24.150;-110.320;2023-08-31T02:13:32;25.50;;;9.52;;
64492;SDS011;50868;24.150;-110.320;2023-08-31T02:15:59;38.50;;;10.05;;
64492;SDS011;50868;24.150;-110.320;2023-08-31T02:18:26;68.38;;;12.93;;
64492;SDS011;50868;24.150;-110.320;2023-08-31T02:20:53;27.35;;;6.80;;
64492;SDS011;50868;24.150;-110.320;2023-08-31T02:23:21;34.20;;;6.18;;
64492;SDS011;50868;24.150;-110.320;2023-08-31T02:25:48;13.13;;;4.05;;
64492;SDS011;50868;24.150;-110.320;2023-08-31T02:28:15;14.15;;;4.38;;
64492;SDS011;50868;24.150;-110.320;2023-08-31T02:30:46;18.38;;;6.07;;
64492;SDS011;50868;24.150;-110.320;2023-08-31T02:33:23;16.65;;;5.35;;
64492;SDS011;50868;24.150;-110.320;2023-08-31T02:35:51;12.38;;;3.45;;
64492;SDS011;50868;24.150;-110.320;2023-08-31T02:38:20;17.77;;;4.85;;
64492;SDS011;50868;24.150;-110.320;2023-08-31T02:40:47;20.38;;;4.53;;
64492;SDS011;50868;24.150;-110.320;2023-08-31T02:43:15;19.05;;;4.63;;
64492;SDS011;50868;24.150;-110.320;2023-08-31T02:45:42;29.10;;;5.40;;
64492;SDS011;50868;24.150;-110.320;2023-08-31T02:48:10;38.97;;;7.70;;
64492;SDS011;50868;24.150;-110.320;2023-08-31T02:50:40;14.10;;;5.25;;
64492;SDS011;50868;24.150;-110.320;2023-08-31T02:53:07;23.20;;;6.05;;
64492;SDS011;50868;24.150;-110.320;2023-08-31T02:55:34;21.85;;;6.20;;
64492;SDS011;50868;24.150;-110.320;2023-08-31T02:58:02;21.25;;;5.75;;
64492;SDS011;50868;24.150;-110.320;2023-08-31T03:00:29;13.35;;;4.80;;
64492;SDS011;50868;24.150;-110.320;2023-08-31T03:02:56;22.92;;;4.70;;
64492;SDS011;50868;24.150;-110.320;2023-08-31T03:05:24;23.65;;;4.90;;
64492;SDS011;50868;24.150;-110.320;2023-08-31T03:07:51;16.98;;;4.15;;
64492;SDS011;50868;24.150;-110.320;2023-08-31T03:10:20;14.90;;;4.70;;
64492;SDS011;50868;24.150;-110.320;2023-08-31T03:12:47;12.60;;;4.55;;
64492;SDS011;50868;24.150;-110.320;2023-08-31T03:15:14;13.85;;;4.32;;
64492;SDS011;50868;24.150;-110.320;2023-08-31T03:17:42;12.10;;;3.55;;
64492;SDS011;50868;24.150;-110.320;2023-08-31T03:20:10;21.85;;;5.82;;
64492;SDS011;50868;24.150;-110.320;2023-08-31T03:22:37;89.90;;;13.57;;
64492;SDS011;50868;24.150;-110.320;2023-08-31T03:25:05;25.52;;;5.32;;
64492;SDS011;50868;24.150;-110.320;2023-08-31T03:27:34;36.20;;;5.22;;
64492;SDS011;50868;24.150;-110.320;2023-08-31T03:30:02;9.13;;;3.03;;
64492;SDS011;50868;24.150;-110.320;2023-08-31T03:32:32;16.08;;;4.15;;
64492;SDS011;50868;24.150;-110.320;2023-08-31T03:35:01;35.92;;;6.53;;
64492;SDS011;50868;24.150;-110.320;2023-08-31T03:37:29;21.15;;;4.50;;
64492;SDS011;50868;24.150;-110.320;2023-08-31T03:39:57;20.17;;;5.07;;
64492;SDS011;50868;24.150;-110.320;2023-08-31T03:42:24;12.07;;;3.45;;
64492;SDS011;50868;24.150;-110.320;2023-08-31T03:44:51;37.78;;;6.50;;
64492;SDS011;50868;24.150;-110.320;2023-08-31T03:47:18;10.05;;;3.65;;
64492;SDS011;50868;24.150;-110.320;2023-08-31T03:49:45;13.20;;;3.75;;
64492;SDS011;50868;24.150;-110.320;2023-08-31T03:52:13;10.65;;;4.88;;
64492;SDS011;50868;24.150;-110.320;2023-08-31T03:54:40;11.95;;;5.30;;
64492;SDS011;50868;24.150;-110.320;2023-08-31T03:57:07;16.85;;;4.38;;
64492;SDS011;50868;24.150;-110.320;2023-08-31T03:59:34;39.40;;;7.35;;
64492;SDS011;50868;24.150;-110.320;2023-08-31T04:02:01;23.65;;;4.72;;
64492;SDS011;50868;24.150;-110.320;2023-08-31T04:04:29;17.60;;;5.65;;
64492;SDS011;50868;24.150;-110.320;2023-08-31T04:06:56;17.77;;;5.32;;
64492;SDS011;50868;24.150;-110.320;2023-08-31T04:09:24;22.52;;;5.38;;
64492;SDS011;50868;24.150;-110.320;2023-08-31T04:11:51;26.15;;;7.00;;
64492;SDS011;50868;24.150;-110.320;2023-08-31T04:14:18;13.02;;;4.32;;
64492;SDS011;50868;24.150;-110.320;2023-08-31T04:16:45;33.05;;;7.50;;
64492;SDS011;50868;24.150;-110.320;2023-08-31T04:19:16;28.30;;;6.53;;
64492;SDS011;50868;24.150;-110.320;2023-08-31T04:21:43;24.10;;;8.43;;
64492;SDS011;50868;24.150;-110.320;2023-08-31T04:24:10;34.15;;;8.18;;
64492;SDS011;50868;24.150;-110.320;2023-08-31T04:26:37;29.02;;;7.15;;
64492;SDS011;50868;24.150;-110.320;2023-08-31T04:29:05;18.23;;;5.95;;
64492;SDS011;50868;24.150;-110.320;2023-08-31T04:31:32;6.60;;;3.60;;
64492;SDS011;50868;24.150;-110.320;2023-08-31T04:33:59;11.38;;;4.35;;
64492;SDS011;50868;24.150;-110.320;2023-08-31T04:36:26;14.13;;;4.18;;
64492;SDS011;50868;24.150;-110.320;2023-08-31T04:38:53;7.22;;;3.80;;
64492;SDS011;50868;24.150;-110.320;2023-08-31T04:41:20;12.32;;;4.63;;
64492;SDS011;50868;24.150;-110.320;2023-08-31T04:43:47;7.97;;;4.55;;
64492;SDS011;50868;24.150;-110.320;2023-08-31T04:46:14;11.43;;;4.70;;
64492;SDS011;50868;24.150;-110.320;2023-08-31T04:48:42;9.45;;;5.20;;
64492;SDS011;50868;24.150;-110.320;2023-08-31T04:51:09;9.90;;;4.28;;
64492;SDS011;50868;24.150;-110.320;2023-08-31T04:53:58;8.35;;;3.95;;
64492;SDS011;50868;24.150;-110.320;2023-08-31T04:56:30;7.35;;;4.50;;
64492;SDS011;50868;24.150;-110.320;2023-08-31T04:58:59;6.47;;;4.00;;
64492;SDS011;50868;24.150;-110.320;2023-08-31T05:01:26;6.78;;;4.30;;
64492;SDS011;50868;24.150;-110.320;2023-08-31T05:03:53;7.32;;;3.97;;
64492;SDS011;50868;24.150;-110.320;2023-08-31T05:06:21;5.32;;;3.35;;
64492;SDS011;50868;24.150;-110.320;2023-08-31T05:08:48;6.20;;;4.50;;
64492;SDS011;50868;24.150;-110.320;2023-08-31T05:11:15;4.10;;;3.40;;
64492;SDS011;50868;24.150;-110.320;2023-08-31T05:13:42;4.53;;;3.65;;
64492;SDS011;50868;24.150;-110.320;2023-08-31T05:16:14;7.70;;;3.90;;
64492;SDS011;50868;24.150;-110.320;2023-08-31T05:18:41;3.85;;;3.42;;
64492;SDS011;50868;24.150;-110.320;2023-08-31T05:21:08;4.75;;;3.45;;
64492;SDS011;50868;24.150;-110.320;2023-08-31T05:23:35;5.05;;;3.13;;
64492;SDS011;50868;24.150;-110.320;2023-08-31T05:26:02;5.88;;;3.58;;
64492;SDS011;50868;24.150;-110.320;2023-08-31T05:28:29;4.43;;;2.45;;
64492;SDS011;50868;24.150;-110.320;2023-08-31T05:31:00;4.85;;;3.30;;
64492;SDS011;50868;24.150;-110.320;2023-08-31T05:33:31;3.55;;;2.80;;
64492;SDS011;50868;24.150;-110.320;2023-08-31T05:36:02;6.47;;;3.60;;
64492;SDS011;50868;24.150;-110.320;2023-08-31T05:38:29;4.95;;;2.95;;
64492;SDS011;50868;24.150;-110.320;2023-08-31T05:41:03;5.13;;;3.17;;
64492;SDS011;50868;24.150;-110.320;2023-08-31T05:43:35;3.92;;;2.85;;
64492;SDS011;50868;24.150;-110.320;2023-08-31T05:46:06;3.95;;;3.17;;
64492;SDS011;50868;24.150;-110.320;2023-08-31T05:48:34;4.20;;;2.67;;
64492;SDS011;50868;24.150;-110.320;2023-08-31T05:51:02;3.28;;;2.60;;
64492;SDS011;50868;24.150;-110.320;2023-08-31T05:53:30;5.22;;;3.05;;
64492;SDS011;50868;24.150;-110.320;2023-08-31T05:55:57;4.03;;;3.00;;
64492;SDS011;50868;24.150;-110.320;2023-08-31T05:58:33;7.10;;;3.47;;
64492;SDS011;50868;24.150;-110.320;2023-08-31T06:01:02;5.28;;;3.40;;
64492;SDS011;50868;24.150;-110.320;2023-08-31T06:03:30;4.32;;;3.40;;
64492;SDS011;50868;24.150;-110.320;2023-08-31T06:05:58;6.63;;;4.20;;
64492;SDS011;50868;24.150;-110.320;2023-08-31T06:08:27;3.78;;;3.17;;
64492;SDS011;50868;24.150;-110.320;2023-08-31T06:10:55;4.65;;;2.60;;
64492;SDS011;50868;24.150;-110.320;2023-08-31T06:13:23;6.25;;;2.70;;
64492;SDS011;50868;24.150;-110.320;2023-08-31T06:15:50;3.80;;;2.75;;
64492;SDS011;50868;24.150;-110.320;2023-08-31T06:18:17;6.13;;;3.17;;
64492;SDS011;50868;24.150;-110.320;2023-08-31T06:20:44;2.78;;;2.53;;
64492;SDS011;50868;24.150;-110.320;2023-08-31T06:23:11;6.40;;;2.60;;
64492;SDS011;50868;24.150;-110.320;2023-08-31T06:25:38;2.50;;;2.30;;
64492;SDS011;50868;24.150;-110.320;2023-08-31T06:28:05;3.00;;;2.70;;
64492;SDS011;50868;24.150;-110.320;2023-08-31T06:30:34;5.47;;;2.70;;
64492;SDS011;50868;24.150;-110.320;2023-08-31T06:33:01;5.68;;;2.53;;
64492;SDS011;50868;24.150;-110.320;2023-08-31T06:35:29;3.30;;;2.95;;
64492;SDS011;50868;24.150;-110.320;2023-08-31T06:37:59;5.72;;;2.53;;
64492;SDS011;50868;24.150;-110.320;2023-08-31T06:40:26;8.23;;;2.72;;
64492;SDS011;50868;24.150;-110.320;2023-08-31T06:42:53;7.57;;;3.40;;
64492;SDS011;50868;24.150;-110.320;2023-08-31T06:45:20;4.75;;;3.63;;
64492;SDS011;50868;24.150;-110.320;2023-08-31T06:47:47;7.63;;;5.07;;
64492;SDS011;50868;24.150;-110.320;2023-08-31T06:50:14;6.40;;;4.22;;
64492;SDS011;50868;24.150;-110.320;2023-08-31T06:52:42;4.65;;;3.38;;
64492;SDS011;50868;24.150;-110.320;2023-08-31T06:55:09;4.13;;;3.60;;
64492;SDS011;50868;24.150;-110.320;2023-08-31T06:57:36;8.13;;;5.13;;
64492;SDS011;50868;24.150;-110.320;2023-08-31T07:00:04;7.68;;;5.43;;
64492;SDS011;50868;24.150;-110.320;2023-08-31T07:02:33;8.43;;;6.20;;
64492;SDS011;50868;24.150;-110.320;2023-08-31T07:05:03;10.77;;;6.03;;
64492;SDS011;50868;24.150;-110.320;2023-08-31T07:07:30;7.75;;;6.05;;
64492;SDS011;50868;24.150;-110.320;2023-08-31T07:09:58;8.18;;;5.95;;
64492;SDS011;50868;24.150;-110.320;2023-08-31T07:12:25;7.38;;;6.47;;
64492;SDS011;50868;24.150;-110.320;2023-08-31T07:14:52;7.68;;;6.80;;
64492;SDS011;50868;24.150;-110.320;2023-08-31T07:17:20;6.90;;;6.20;;
64492;SDS011;50868;24.150;-110.320;2023-08-31T07:19:47;5.78;;;4.38;;
64492;SDS011;50868;24.150;-110.320;2023-08-31T07:22:14;6.68;;;5.00;;
64492;SDS011;50868;24.150;-110.320;2023-08-31T07:24:41;6.75;;;4.68;;
64492;SDS011;50868;24.150;-110.320;2023-08-31T07:27:08;4.78;;;4.25;;
64492;SDS011;50868;24.150;-110.320;2023-08-31T07:29:35;4.88;;;3.95;;
64492;SDS011;50868;24.150;-110.320;2023-08-31T07:32:03;7.15;;;4.63;;
64492;SDS011;50868;24.150;-110.320;2023-08-31T07:34:48;7.07;;;4.65;;
64492;SDS011;50868;24.150;-110.320;2023-08-31T07:37:15;6.03;;;4.45;;
64492;SDS011;50868;24.150;-110.320;2023-08-31T07:39:42;10.13;;;3.90;;
64492;SDS011;50868;24.150;-110.320;2023-08-31T07:42:09;4.47;;;3.90;;
64492;SDS011;50868;24.150;-110.320;2023-08-31T07:44:36;5.32;;;4.13;;
64492;SDS011;50868;24.150;-110.320;2023-08-31T07:47:03;9.05;;;4.43;;
64492;SDS011;50868;24.150;-110.320;2023-08-31T07:49:31;4.78;;;3.58;;
64492;SDS011;50868;24.150;-110.320;2023-08-31T07:51:58;5.57;;;3.63;;
64492;SDS011;50868;24.150;-110.320;2023-08-31T07:54:25;6.55;;;4.35;;
64492;SDS011;50868;24.150;-110.320;2023-08-31T07:56:52;6.03;;;4.45;;
64492;SDS011;50868;24.150;-110.320;2023-08-31T07:59:19;6.82;;;4.05;;
64492;SDS011;50868;24.150;-110.320;2023-08-31T08:01:47;7.68;;;3.83;;
64492;SDS011;50868;24.150;-110.320;2023-08-31T08:04:14;4.40;;;4.00;;
64492;SDS011;50868;24.150;-110.320;2023-08-31T08:06:45;9.48;;;5.22;;
64492;SDS011;50868;24.150;-110.320;2023-08-31T08:09:12;8.32;;;5.00;;
64492;SDS011;50868;24.150;-110.320;2023-08-31T08:11:39;7.75;;;4.88;;
64492;SDS011;50868;24.150;-110.320;2023-08-31T08:14:07;10.93;;;4.25;;
64492;SDS011;50868;24.150;-110.320;2023-08-31T08:16:34;7.25;;;5.60;;
64492;SDS011;50868;24.150;-110.320;2023-08-31T08:19:02;7.50;;;5.22;;
64492;SDS011;50868;24.150;-110.320;2023-08-31T08:21:29;10.38;;;6.57;;
64492;SDS011;50868;24.150;-110.320;2023-08-31T08:23:56;7.47;;;5.80;;
64492;SDS011;50868;24.150;-110.320;2023-08-31T08:26:23;11.00;;;6.28;;
64492;SDS011;50868;24.150;-110.320;2023-08-31T08:28:50;12.98;;;7.20;;
64492;SDS011;50868;24.150;-110.320;2023-08-31T08:31:17;6.45;;;5.25;;
64492;SDS011;50868;24.150;-110.320;2023-08-31T08:33:44;7.32;;;4.90;;
64492;SDS011;50868;24.150;-110.320;2023-08-31T08:36:11;6.20;;;5.18;;
64492;SDS011;50868;24.150;-110.320;2023-08-31T08:38:38;11.50;;;7.60;;
64492;SDS011;50868;24.150;-110.320;2023-08-31T08:41:05;8.90;;;5.78;;
64492;SDS011;50868;24.150;-110.320;2023-08-31T08:43:33;6.80;;;4.40;;
64492;SDS011;50868;24.150;-110.320;2023-08-31T08:46:07;6.95;;;4.85;;
64492;SDS011;50868;24.150;-110.320;2023-08-31T08:48:35;7.50;;;4.72;;
64492;SDS011;50868;24.150;-110.320;2023-08-31T08:51:04;23.40;;;6.15;;
64492;SDS011;50868;24.150;-110.320;2023-08-31T08:53:33;9.02;;;6.20;;
64492;SDS011;50868;24.150;-110.320;2023-08-31T08:56:00;9.48;;;6.25;;
64492;SDS011;50868;24.150;-110.320;2023-08-31T08:58:27;10.68;;;8.07;;
64492;SDS011;50868;24.150;-110.320;2023-08-31T09:00:55;9.50;;;6.35;;
64492;SDS011;50868;24.150;-110.320;2023-08-31T09:03:22;6.57;;;5.30;;
64492;SDS011;50868;24.150;-110.320;2023-08-31T09:05:50;13.68;;;6.28;;
64492;SDS011;50868;24.150;-110.320;2023-08-31T09:08:17;8.70;;;5.50;;
64492;SDS011;50868;24.150;-110.320;2023-08-31T09:10:54;10.95;;;5.20;;
64492;SDS011;50868;24.150;-110.320;2023-08-31T09:13:27;9.10;;;6.28;;
64492;SDS011;50868;24.150;-110.320;2023-08-31T09:15:55;7.15;;;4.88;;
64492;SDS011;50868;24.150;-110.320;2023-08-31T09:18:26;7.72;;;5.82;;
64492;SDS011;50868;24.150;-110.320;2023-08-31T09:20:55;6.80;;;4.13;;
64492;SDS011;50868;24.150;-110.320;2023-08-31T09:23:23;5.75;;;4.60;;
64492;SDS011;50868;24.150;-110.320;2023-08-31T09:25:52;8.52;;;5.07;;
64492;SDS011;50868;24.150;-110.320;2023-08-31T09:28:31;8.43;;;4.40;;
64492;SDS011;50868;24.150;-110.320;2023-08-31T09:31:06;8.07;;;4.53;;
64492;SDS011;50868;24.150;-110.320;2023-08-31T09:33:34;6.00;;;5.07;;
64492;SDS011;50868;24.150;-110.320;2023-08-31T09:36:02;5.53;;;4.35;;
64492;SDS011;50868;24.150;-110.320;2023-08-31T09:38:40;7.05;;;5.07;;
64492;SDS011;50868;24.150;-110.320;2023-08-31T09:41:11;5.78;;;5.22;;
64492;SDS011;50868;24.150;-110.320;2023-08-31T09:43:39;4.85;;;4.35;;
64492;SDS011;50868;24.150;-110.320;2023-08-31T09:46:06;4.95;;;4.30;;
64492;SDS011;50868;24.150;-110.320;2023-08-31T09:48:34;6.30;;;4.07;;
64492;SDS011;50868;24.150;-110.320;2023-08-31T09:51:05;7.55;;;5.07;;
64492;SDS011;50868;24.150;-110.320;2023-08-31T09:53:33;4.88;;;3.70;;
64492;SDS011;50868;24.150;-110.320;2023-08-31T09:56:06;6.68;;;4.60;;
64492;SDS011;50868;24.150;-110.320;2023-08-31T09:58:38;5.97;;;4.25;;
64492;SDS011;50868;24.150;-110.320;2023-08-31T10:01:05;4.35;;;3.95;;
64492;SDS011;50868;24.150;-110.320;2023-08-31T10:03:32;5.68;;;3.78;;
64492;SDS011;50868;24.150;-110.320;2023-08-31T10:06:00;5.13;;;4.03;;
64492;SDS011;50868;24.150;-110.320;2023-08-31T10:08:27;9.20;;;6.10;;
64492;SDS011;50868;24.150;-110.320;2023-08-31T10:10:59;8.10;;;6.05;;
64492;SDS011;50868;24.150;-110.320;2023-08-31T10:13:30;8.50;;;4.90;;
64492;SDS011;50868;24.150;-110.320;2023-08-31T10:16:01;8.43;;;4.70;;
64492;SDS011;50868;24.150;-110.320;2023-08-31T10:18:32;9.20;;;4.75;;
64492;SDS011;50868;24.150;-110.320;2023-08-31T10:21:04;5.60;;;4.68;;
64492;SDS011;50868;24.150;-110.320;2023-08-31T10:23:31;7.13;;;5.20;;
64492;SDS011;50868;24.150;-110.320;2023-08-31T10:26:01;7.05;;;4.40;;
64492;SDS011;50868;24.150;-110.320;2023-08-31T10:28:29;6.47;;;4.70;;
64492;SDS011;50868;24.150;-110.320;2023-08-31T10:31:05;5.97;;;4.68;;
64492;SDS011;50868;24.150;-110.320;2023-08-31T10:33:40;7.82;;;5.18;;
64492;SDS011;50868;24.150;-110.320;2023-08-31T10:39:28;10.75;;;5.68;;
64492;SDS011;50868;24.150;-110.320;2023-08-31T10:41:39;11.20;;;7.88;;
64492;SDS011;50868;24.150;-110.320;2023-08-31T10:44:19;11.60;;;7.68;;
64492;SDS011;50868;24.150;-110.320;2023-08-31T10:46:51;11.57;;;5.93;;
64492;SDS011;50868;24.150;-110.320;2023-08-31T10:49:20;8.55;;;6.25;;
64492;SDS011;50868;24.150;-110.320;2023-08-31T10:52:00;10.20;;;6.22;;
64492;SDS011;50868;24.150;-110.320;2023-08-31T10:54:43;7.55;;;4.25;;
64492;SDS011;50868;24.150;-110.320;2023-08-31T10:57:12;7.03;;;5.28;;
64492;SDS011;50868;24.150;-110.320;2023-08-31T10:59:51;8.75;;;6.15;;
64492;SDS011;50868;24.150;-110.320;2023-08-31T11:02:35;7.88;;;5.82;;
64492;SDS011;50868;24.150;-110.320;2023-08-31T11:05:10;6.32;;;4.65;;
64492;SDS011;50868;24.150;-110.320;2023-08-31T11:07:47;5.18;;;4.50;;
64492;SDS011;50868;24.150;-110.320;2023-08-31T11:10:18;5.88;;;5.28;;
64492;SDS011;50868;24.150;-110.320;2023-08-31T11:12:49;5.18;;;4.60;;
64492;SDS011;50868;24.150;-110.320;2023-08-31T11:15:18;7.93;;;4.97;;
64492;SDS011;50868;24.150;-110.320;2023-08-31T11:17:49;7.32;;;5.57;;
64492;SDS011;50868;24.150;-110.320;2023-08-31T11:20:18;6.47;;;5.78;;
64492;SDS011;50868;24.150;-110.320;2023-08-31T11:22:47;6.28;;;4.72;;
64492;SDS011;50868;24.150;-110.320;2023-08-31T11:25:18;7.03;;;5.25;;
64492;SDS011;50868;24.150;-110.320;2023-08-31T11:27:55;8.02;;;5.57;;
64492;SDS011;50868;24.150;-110.320;2023-08-31T11:30:27;6.50;;;5.30;;
64492;SDS011;50868;24.150;-110.320;2023-08-31T11:33:04;6.20;;;4.88;;
64492;SDS011;50868;24.150;-110.320;2023-08-31T11:35:37;5.90;;;4.70;;
64492;SDS011;50868;24.150;-110.320;2023-08-31T11:38:12;7.07;;;5.07;;
64492;SDS011;50868;24.150;-110.320;2023-08-31T11:40:39;6.28;;;5.45;;
64492;SDS011;50868;24.150;-110.320;2023-08-31T11:43:07;7.25;;;5.47;;
64492;SDS011;50868;24.150;-110.320;2023-08-31T11:45:34;7.93;;;5.25;;
64492;SDS011;50868;24.150;-110.320;2023-08-31T11:48:04;6.40;;;4.75;;
64492;SDS011;50868;24.150;-110.320;2023-08-31T11:50:32;5.97;;;5.15;;
64492;SDS011;50868;24.150;-110.320;2023-08-31T11:52:59;6.88;;;4.57;;
64492;SDS011;50868;24.150;-110.320;2023-08-31T11:55:26;11.32;;;5.45;;
64492;SDS011;50868;24.150;-110.320;2023-08-31T11:57:54;9.13;;;5.03;;
64492;SDS011;50868;24.150;-110.320;2023-08-31T12:00:22;7.38;;;5.20;;
64492;SDS011;50868;24.150;-110.320;2023-08-31T12:02:59;8.70;;;6.40;;
64492;SDS011;50868;24.150;-110.320;2023-08-31T12:05:27;7.00;;;6.25;;
64492;SDS011;50868;24.150;-110.320;2023-08-31T12:07:56;8.80;;;6.10;;
64492;SDS011;50868;24.150;-110.320;2023-08-31T12:10:26;12.90;;;6.88;;
64492;SDS011;50868;24.150;-110.320;2023-08-31T12:12:53;8.18;;;5.72;;
64492;SDS011;50868;24.150;-110.320;2023-08-31T12:15:34;6.68;;;5.15;;
64492;SDS011;50868;24.150;-110.320;2023-08-31T12:18:13;6.55;;;5.32;;
64492;SDS011;50868;24.150;-110.320;2023-08-31T12:20:49;6.40;;;5.65;;
64492;SDS011;50868;24.150;-110.320;2023-08-31T12:23:18;8.15;;;5.25;;
64492;SDS011;50868;24.150;-110.320;2023-08-31T12:25:48;8.00;;;5.35;;
64492;SDS011;50868;24.150;-110.320;2023-08-31T12:28:17;7.85;;;5.68;;
64492;SDS011;50868;24.150;-110.320;2023-08-31T12:30:47;6.82;;;5.78;;
64492;SDS011;50868;24.150;-110.320;2023-08-31T12:33:16;8.45;;;5.65;;
64492;SDS011;50868;24.150;-110.320;2023-08-31T12:35:44;15.70;;;5.80;;
64492;SDS011;50868;24.150;-110.320;2023-08-31T12:38:12;6.05;;;5.03;;
64492;SDS011;50868;24.150;-110.320;2023-08-31T12:40:39;11.10;;;5.18;;
64492;SDS011;50868;24.150;-110.320;2023-08-31T12:43:06;5.20;;;4.70;;
64492;SDS011;50868;24.150;-110.320;2023-08-31T12:45:35;9.30;;;4.80;;
64492;SDS011;50868;24.150;-110.320;2023-08-31T12:48:02;8.20;;;4.88;;
64492;SDS011;50868;24.150;-110.320;2023-08-31T12:50:31;6.20;;;4.43;;
64492;SDS011;50868;24.150;-110.320;2023-08-31T12:52:58;7.20;;;4.93;;
64492;SDS011;50868;24.150;-110.320;2023-08-31T12:55:25;8.25;;;4.75;;
64492;SDS011;50868;24.150;-110.320;2023-08-31T12:57:52;5.07;;;4.30;;
64492;SDS011;50868;24.150;-110.320;2023-08-31T13:00:19;7.53;;;4.40;;
64492;SDS011;50868;24.150;-110.320;2023-08-31T13:02:47;14.40;;;6.93;;
64492;SDS011;50868;24.150;-110.320;2023-08-31T13:05:16;9.52;;;4.88;;
64492;SDS011;50868;24.150;-110.320;2023-08-31T13:07:43;7.40;;;4.85;;
64492;SDS011;50868;24.150;-110.320;2023-08-31T13:10:10;9.02;;;4.78;;
64492;SDS011;50868;24.150;-110.320;2023-08-31T13:12:37;7.47;;;4.72;;
64492;SDS011;50868;24.150;-110.320;2023-08-31T13:15:05;7.00;;;4.97;;
64492;SDS011;50868;24.150;-110.320;2023-08-31T13:17:33;12.43;;;6.78;;
64492;SDS011;50868;24.150;-110.320;2023-08-31T13:20:00;9.98;;;6.13;;
64492;SDS011;50868;24.150;-110.320;2023-08-31T13:22:29;8.63;;;6.30;;
64492;SDS011;50868;24.150;-110.320;2023-08-31T13:24:57;10.48;;;7.35;;
64492;SDS011;50868;24.150;-110.320;2023-08-31T13:27:24;13.27;;;7.72;;
64492;SDS011;50868;24.150;-110.320;2023-08-31T13:29:51;8.20;;;5.88;;
64492;SDS011;50868;24.150;-110.320;2023-08-31T13:32:18;10.57;;;6.38;;
64492;SDS011;50868;24.150;-110.320;2023-08-31T13:34:45;10.07;;;6.60;;
64492;SDS011;50868;24.150;-110.320;2023-08-31T13:37:12;9.57;;;6.95;;
64492;SDS011;50868;24.150;-110.320;2023-08-31T13:39:39;18.25;;;7.97;;
64492;SDS011;50868;24.150;-110.320;2023-08-31T13:42:06;8.65;;;5.28;;
64492;SDS011;50868;24.150;-110.320;2023-08-31T13:44:34;9.13;;;5.00;;
64492;SDS011;50868;24.150;-110.320;2023-08-31T13:47:01;9.48;;;4.93;;
64492;SDS011;50868;24.150;-110.320;2023-08-31T13:49:29;10.93;;;5.30;;
64492;SDS011;50868;24.150;-110.320;2023-08-31T13:51:56;23.02;;;7.03;;
64492;SDS011;50868;24.150;-110.320;2023-08-31T13:54:25;11.90;;;6.88;;
64492;SDS011;50868;24.150;-110.320;2023-08-31T13:56:52;16.90;;;7.88;;
64492;SDS011;50868;24.150;-110.320;2023-08-31T13:59:19;14.93;;;6.63;;
64492;SDS011;50868;24.150;-110.320;2023-08-31T14:01:46;10.10;;;6.10;;
64492;SDS011;50868;24.150;-110.320;2023-08-31T14:04:13;7.95;;;6.25;;
64492;SDS011;50868;24.150;-110.320;2023-08-31T14:06:40;13.55;;;5.43;;
64492;SDS011;50868;24.150;-110.320;2023-08-31T14:09:07;12.85;;;5.95;;
64492;SDS011;50868;24.150;-110.320;2023-08-31T14:11:35;12.52;;;5.70;;
64492;SDS011;50868;24.150;-110.320;2023-08-31T14:14:02;10.10;;;6.65;;
64492;SDS011;50868;24.150;-110.320;2023-08-31T14:16:32;14.30;;;6.55;;
64492;SDS011;50868;24.150;-110.320;2023-08-31T14:18:59;16.30;;;6.40;;
64492;SDS011;50868;24.150;-110.320;2023-08-31T14:21:26;18.00;;;6.53;;
64492;SDS011;50868;24.150;-110.320;2023-08-31T14:23:53;12.55;;;6.35;;